createdAt,value
2018-12-19T00:00:25.042Z,29.63
2018-12-19T00:02:53.485Z,33.97
2018-12-19T00:05:21.992Z,31.17
2018-12-19T00:07:50.392Z,34.13
2018-12-19T00:10:18.929Z,29.63
2018-12-19T00:12:47.348Z,30.20
2018-12-19T00:15:15.805Z,29.87
2018-12-19T00:17:44.200Z,32.20
2018-12-19T00:20:12.652Z,30.63
2018-12-19T00:22:41.132Z,30.03
2018-12-19T00:25:09.614Z,30.87
2018-12-19T00:27:38.557Z,34.00
2018-12-19T00:30:07.610Z,32.60
2018-12-19T00:32:36.073Z,30.87
2018-12-19T00:35:05.482Z,33.33
2018-12-19T00:37:33.872Z,31.87
2018-12-19T00:40:02.340Z,31.67
2018-12-19T00:42:30.816Z,31.57
2018-12-19T00:44:59.319Z,33.17
2018-12-19T00:47:27.713Z,30.53
2018-12-19T00:49:56.136Z,27.97
2018-12-19T00:52:24.536Z,29.63
2018-12-19T00:54:53.017Z,33.47
2018-12-19T00:57:21.432Z,31.50
2018-12-19T00:59:49.855Z,28.17
2018-12-19T01:02:18.259Z,31.10
2018-12-19T01:04:48.254Z,29.80
2018-12-19T01:07:16.971Z,31.07
2018-12-19T01:09:45.454Z,30.37
2018-12-19T01:12:13.862Z,30.43
2018-12-19T01:14:42.266Z,30.80
2018-12-19T01:17:10.795Z,31.53
2018-12-19T01:19:39.196Z,30.40
2018-12-19T01:22:07.649Z,28.77
2018-12-19T01:24:36.147Z,31.13
2018-12-19T01:27:04.547Z,29.90
2018-12-19T01:29:32.960Z,29.07
2018-12-19T01:32:01.398Z,32.87
2018-12-19T01:34:30.418Z,30.30
2018-12-19T01:36:59.184Z,28.20
2018-12-19T01:39:27.577Z,32.03
2018-12-19T01:41:56.411Z,28.60
2018-12-19T01:44:24.900Z,28.47
2018-12-19T01:46:53.904Z,35.03
2018-12-19T01:49:22.375Z,30.93
2018-12-19T01:51:50.766Z,29.10
2018-12-19T01:54:19.188Z,28.47
2018-12-19T01:56:47.580Z,30.13
2018-12-19T01:59:16.082Z,30.53
2018-12-19T02:01:44.479Z,32.10
2018-12-19T02:04:12.867Z,30.13
2018-12-19T02:06:41.257Z,32.80
2018-12-19T02:09:09.660Z,26.63
2018-12-19T02:11:38.885Z,29.10
2018-12-19T02:14:07.292Z,28.97
2018-12-19T02:16:35.697Z,28.17
2018-12-19T02:19:04.166Z,29.70
2018-12-19T02:21:33.284Z,31.33
2018-12-19T02:24:01.710Z,30.07
2018-12-19T02:26:30.174Z,30.63
2018-12-19T02:28:58.702Z,30.47
2018-12-19T02:31:27.088Z,28.73
2018-12-19T02:33:55.762Z,28.87
2018-12-19T02:36:24.158Z,27.80
2018-12-19T02:38:52.622Z,28.33
2018-12-19T02:41:21.038Z,26.10
2018-12-19T02:43:49.476Z,26.87
2018-12-19T02:46:17.886Z,28.20
2018-12-19T02:48:46.328Z,25.10
2018-12-19T02:51:14.776Z,29.87
2018-12-19T02:53:43.169Z,24.73
2018-12-19T02:56:11.570Z,27.13
2018-12-19T02:58:39.965Z,28.23
2018-12-19T03:01:08.380Z,26.07
2018-12-19T03:03:37.165Z,26.03
2018-12-19T03:06:05.579Z,27.30
2018-12-19T03:08:33.968Z,25.73
2018-12-19T03:11:02.372Z,25.27
2018-12-19T03:13:31.214Z,23.93
2018-12-19T03:15:59.628Z,24.83
2018-12-19T03:18:28.029Z,23.87
2018-12-19T03:20:56.506Z,24.73
2018-12-19T03:23:24.977Z,25.10
2018-12-19T03:25:53.459Z,25.23
2018-12-19T03:28:22.119Z,24.93
2018-12-19T03:30:50.524Z,24.97
2018-12-19T03:33:19.168Z,23.27
2018-12-19T03:35:47.578Z,26.60
2018-12-19T03:38:17.700Z,26.83
2018-12-19T03:40:46.167Z,24.17
2018-12-19T03:43:14.638Z,25.07
2018-12-19T03:45:43.033Z,25.30
2018-12-19T03:48:13.178Z,23.03
2018-12-19T03:50:41.627Z,20.17
2018-12-19T03:53:10.119Z,21.83
2018-12-19T03:55:38.526Z,25.93
2018-12-19T03:58:06.917Z,23.90
2018-12-19T04:00:35.342Z,22.13
2018-12-19T04:03:03.837Z,23.67
2018-12-19T04:05:32.253Z,23.87
2018-12-19T04:08:00.647Z,21.30
2018-12-19T04:10:29.066Z,21.03
2018-12-19T04:12:57.478Z,19.77
2018-12-19T04:15:25.919Z,21.37
2018-12-19T04:17:54.526Z,20.73
2018-12-19T04:20:22.928Z,22.50
2018-12-19T04:22:51.394Z,20.07
2018-12-19T04:25:19.800Z,20.57
2018-12-19T04:27:48.259Z,20.53
2018-12-19T04:30:16.713Z,23.03
2018-12-19T04:32:45.373Z,18.33
2018-12-19T04:35:13.779Z,18.27
2018-12-19T04:37:42.176Z,20.67
2018-12-19T04:40:10.569Z,18.80
2018-12-19T04:42:38.969Z,17.80
2018-12-19T04:45:07.985Z,17.57
2018-12-19T04:47:36.679Z,18.03
2018-12-19T04:50:05.577Z,18.60
2018-12-19T04:52:34.094Z,17.63
2018-12-19T04:55:02.885Z,18.20
2018-12-19T04:57:31.287Z,20.63
2018-12-19T04:59:59.717Z,18.13
2018-12-19T05:02:28.211Z,17.27
2018-12-19T05:04:57.103Z,18.33
2018-12-19T05:07:25.710Z,17.63
2018-12-19T05:09:54.181Z,17.87
2018-12-19T05:12:22.598Z,15.23
2018-12-19T05:14:50.991Z,19.37
2018-12-19T05:17:19.394Z,16.13
2018-12-19T05:19:47.945Z,18.37
2018-12-19T05:22:16.445Z,15.63
2018-12-19T05:24:44.875Z,17.97
2018-12-19T05:27:13.308Z,16.33
2018-12-19T05:29:41.706Z,17.23
2018-12-19T05:32:10.179Z,15.43
2018-12-19T05:34:38.624Z,15.77
2018-12-19T05:37:07.140Z,19.00
2018-12-19T05:39:35.547Z,19.87
2018-12-19T05:42:03.964Z,15.23
2018-12-19T05:44:32.360Z,17.70
2018-12-19T05:47:00.758Z,19.27
2018-12-19T05:49:29.379Z,17.33
2018-12-19T05:51:58.411Z,35.57
2018-12-19T05:54:26.905Z,19.37
2018-12-19T05:56:55.441Z,14.77
2018-12-19T05:59:23.894Z,17.33
2018-12-19T06:01:52.330Z,17.37
2018-12-19T06:04:20.729Z,16.30
2018-12-19T06:06:49.147Z,19.47
2018-12-19T06:09:17.542Z,15.03
2018-12-19T06:11:46.093Z,18.13
2018-12-19T06:14:14.553Z,16.70
2018-12-19T06:16:43.678Z,17.90
2018-12-19T06:19:12.214Z,17.37
2018-12-19T06:21:40.599Z,16.87
2018-12-19T06:24:09.054Z,19.60
2018-12-19T06:26:37.458Z,19.60
2018-12-19T06:29:05.879Z,17.37
2018-12-19T06:31:34.362Z,18.80
2018-12-19T06:34:02.874Z,16.57
2018-12-19T06:36:31.519Z,15.63
2018-12-19T06:38:59.973Z,20.93
2018-12-19T06:41:28.517Z,20.17
2018-12-19T06:43:56.965Z,18.53
2018-12-19T06:46:25.396Z,18.93
2018-12-19T06:48:53.796Z,18.53
2018-12-19T06:51:22.309Z,22.67
2018-12-19T06:53:50.727Z,22.10
2018-12-19T06:56:19.277Z,19.10
2018-12-19T06:58:47.681Z,20.63
2018-12-19T07:01:16.209Z,21.00
2018-12-19T07:03:44.621Z,18.93
2018-12-19T07:06:13.023Z,19.23
2018-12-19T07:08:41.594Z,16.97
2018-12-19T07:11:10.295Z,18.57
2018-12-19T07:13:38.747Z,23.03
2018-12-19T07:16:07.393Z,18.90
2018-12-19T07:18:35.884Z,27.33
2018-12-19T07:21:04.505Z,21.10
2018-12-19T07:23:32.887Z,21.83
2018-12-19T07:26:01.359Z,21.10
2018-12-19T07:28:29.765Z,22.13
2018-12-19T07:30:58.295Z,21.13
2018-12-19T07:33:26.681Z,20.97
2018-12-19T07:35:55.253Z,19.03
2018-12-19T07:38:23.675Z,19.80
2018-12-19T07:40:52.139Z,19.43
2018-12-19T07:43:20.556Z,17.97
2018-12-19T07:45:49.012Z,17.60
2018-12-19T07:48:17.668Z,19.33
2018-12-19T07:50:46.119Z,21.13
2018-12-19T07:53:14.528Z,19.70
2018-12-19T07:55:43.333Z,21.53
2018-12-19T07:58:11.720Z,20.87
2018-12-19T08:00:40.200Z,16.60
2018-12-19T08:03:08.583Z,19.30
2018-12-19T08:05:37.133Z,16.40
2018-12-19T08:08:05.636Z,16.53
2018-12-19T08:10:34.093Z,16.23
2018-12-19T08:13:02.595Z,15.30
2018-12-19T08:15:31.051Z,16.97
2018-12-19T08:17:59.754Z,15.87
2018-12-19T08:20:28.244Z,11.73
2018-12-19T08:22:56.694Z,14.80
2018-12-19T08:25:25.181Z,14.90
2018-12-19T08:27:53.671Z,13.73
2018-12-19T08:30:22.138Z,13.90
2018-12-19T08:32:50.539Z,16.57
2018-12-19T08:35:18.948Z,11.80
2018-12-19T08:37:47.491Z,12.20
2018-12-19T08:40:16.298Z,16.90
2018-12-19T08:42:45.128Z,16.27
2018-12-19T08:45:13.773Z,13.70
2018-12-19T08:47:42.168Z,13.03
2018-12-19T08:50:10.585Z,14.27
2018-12-19T08:52:39.409Z,14.20
2018-12-19T08:55:07.902Z,13.73
2018-12-19T08:57:36.355Z,12.73
2018-12-19T09:00:08.122Z,12.90
2018-12-19T09:02:36.721Z,13.63
2018-12-19T09:05:05.749Z,13.50
2018-12-19T09:07:34.177Z,13.50
2018-12-19T09:10:02.643Z,13.17
2018-12-19T09:12:31.119Z,13.07
2018-12-19T09:15:00.539Z,12.97
2018-12-19T09:17:29.393Z,13.17
2018-12-19T09:19:58.156Z,16.47
2018-12-19T09:22:26.624Z,14.77
2018-12-19T09:24:55.075Z,11.77
2018-12-19T09:27:23.579Z,13.10
2018-12-19T09:29:52.023Z,11.57
2018-12-19T09:32:20.430Z,13.50
2018-12-19T09:34:48.897Z,13.03
2018-12-19T09:37:17.405Z,12.80
2018-12-19T09:39:45.849Z,14.23
2018-12-19T09:42:14.285Z,14.03
2018-12-19T09:44:42.733Z,14.73
2018-12-19T09:47:12.085Z,12.83
2018-12-19T09:49:40.479Z,12.17
2018-12-19T09:52:09.085Z,11.80
2018-12-19T09:54:37.492Z,13.33
2018-12-19T09:57:05.947Z,12.83
2018-12-19T09:59:35.007Z,14.63
2018-12-19T10:02:03.423Z,12.97
2018-12-19T10:04:31.929Z,13.30
2018-12-19T10:07:00.390Z,11.87
2018-12-19T10:09:28.976Z,11.70
2018-12-19T10:11:57.399Z,13.80
2018-12-19T10:14:25.861Z,13.93
2018-12-19T10:16:54.263Z,12.93
2018-12-19T10:19:22.655Z,14.87
2018-12-19T10:21:51.156Z,12.60
2018-12-19T10:24:21.276Z,12.50
2018-12-19T10:26:49.776Z,13.23
2018-12-19T10:29:18.176Z,13.85
2018-12-19T10:31:46.579Z,12.57
2018-12-19T10:34:15.325Z,12.27
2018-12-19T10:36:43.814Z,13.67
2018-12-19T10:39:13.870Z,15.70
2018-12-19T10:41:42.345Z,13.57
2018-12-19T10:44:10.995Z,16.10
2018-12-19T10:46:39.524Z,22.53
2018-12-19T10:49:08.034Z,14.80
2018-12-19T10:51:36.552Z,11.50
2018-12-19T10:54:05.332Z,20.73
2018-12-19T10:56:33.744Z,14.87
2018-12-19T10:59:02.190Z,19.47
2018-12-19T11:01:31.624Z,15.80
2018-12-19T11:04:00.091Z,12.07
2018-12-19T11:06:29.064Z,18.65
2018-12-19T11:08:57.520Z,13.13
2018-12-19T11:11:32.058Z,11.12
2018-12-19T11:13:57.055Z,12.00
2018-12-19T11:16:25.477Z,11.55
2018-12-19T11:18:53.932Z,13.03
2018-12-19T11:21:22.391Z,11.07
2018-12-19T11:23:50.928Z,12.40
2018-12-19T11:26:19.327Z,12.20
2018-12-19T11:28:48.379Z,12.95
2018-12-19T11:31:17.357Z,9.80
2018-12-19T11:33:45.957Z,9.60
2018-12-19T11:36:15.337Z,17.00
2018-12-19T11:38:44.414Z,13.45
2018-12-19T11:41:13.402Z,11.85
2018-12-19T11:43:42.389Z,13.38
2018-12-19T11:46:11.392Z,13.22
2018-12-19T11:48:40.369Z,12.70
2018-12-19T11:51:09.397Z,12.15
2018-12-19T11:53:38.366Z,14.65
2018-12-19T11:56:06.793Z,16.17
2018-12-19T11:58:35.953Z,13.10
2018-12-19T12:01:04.933Z,13.78
2018-12-19T12:03:33.932Z,13.20
2018-12-19T12:06:03.267Z,11.80
2018-12-19T12:08:32.257Z,14.60
2018-12-19T12:11:01.356Z,11.93
2018-12-19T12:13:30.334Z,12.47
2018-12-19T12:15:59.380Z,12.63
2018-12-19T12:18:28.358Z,12.00
2018-12-19T12:20:57.343Z,11.63
2018-12-19T12:23:26.359Z,13.65
2018-12-19T12:25:55.504Z,12.00
2018-12-19T12:28:24.487Z,14.85
2018-12-19T12:30:53.466Z,16.90
2018-12-19T12:33:22.454Z,14.60
2018-12-19T12:35:51.978Z,13.62
2018-12-19T12:38:20.958Z,14.78
2018-12-19T12:40:49.955Z,13.25
2018-12-19T12:43:19.069Z,18.07
2018-12-19T12:45:48.159Z,16.07
2018-12-19T12:48:17.135Z,17.80
2018-12-19T12:50:46.166Z,17.92
2018-12-19T12:53:16.126Z,19.27
2018-12-19T12:55:45.581Z,15.20
2018-12-19T12:58:14.569Z,14.45
2018-12-19T13:00:43.557Z,13.55
2018-12-19T13:03:12.030Z,17.35
2018-12-19T13:05:40.422Z,19.17
2018-12-19T13:08:09.483Z,16.75
2018-12-19T13:10:37.892Z,16.73
2018-12-19T13:13:06.289Z,16.52
2018-12-19T13:15:38.965Z,16.48
2018-12-19T13:18:08.158Z,14.55
2018-12-19T13:20:37.255Z,14.13
2018-12-19T13:23:05.728Z,14.38
2018-12-19T13:25:34.116Z,15.80
2018-12-19T13:28:03.210Z,18.15
2018-12-19T13:30:31.611Z,16.60
2018-12-19T13:33:00.073Z,16.93
2018-12-19T13:35:28.535Z,18.33
2018-12-19T13:37:57.496Z,23.62
2018-12-19T13:40:26.018Z,21.47
2018-12-19T13:42:54.441Z,16.73
2018-12-19T13:45:22.869Z,17.67
2018-12-19T13:47:51.339Z,22.47
2018-12-19T13:50:20.328Z,16.40
2018-12-19T13:52:48.748Z,17.30
2018-12-19T13:55:17.810Z,17.27
2018-12-19T13:57:48.646Z,18.05
2018-12-19T14:00:18.774Z,18.60
2018-12-19T14:02:47.350Z,17.07
2018-12-19T14:05:15.842Z,17.00
2018-12-19T14:07:44.256Z,16.43
2018-12-19T14:10:12.660Z,15.43
2018-12-19T14:12:41.162Z,16.57
2018-12-19T14:15:10.394Z,18.10
2018-12-19T14:17:38.838Z,29.33
2018-12-19T14:20:08.242Z,15.03
2018-12-19T14:22:36.760Z,17.50
2018-12-19T14:25:05.770Z,17.33
2018-12-19T14:27:34.183Z,15.47
2018-12-19T14:30:02.704Z,17.67
2018-12-19T14:32:31.202Z,18.35
2018-12-19T14:34:59.667Z,20.13
2018-12-19T14:37:28.136Z,16.17
2018-12-19T14:39:56.716Z,14.87
2018-12-19T14:42:25.139Z,16.17
2018-12-19T14:44:53.542Z,16.63
2018-12-19T14:47:21.989Z,18.77
2018-12-19T14:49:50.382Z,18.27
2018-12-19T14:52:18.812Z,16.63
2018-12-19T14:54:47.232Z,17.67
2018-12-19T14:57:15.655Z,17.23
2018-12-19T14:59:44.105Z,19.37
2018-12-19T15:02:12.543Z,18.80
2018-12-19T15:04:40.973Z,15.40
2018-12-19T15:07:09.815Z,20.30
2018-12-19T15:09:38.262Z,18.83
2018-12-19T15:12:06.671Z,16.17
2018-12-19T15:14:35.140Z,19.53
2018-12-19T15:17:04.489Z,21.13
2018-12-19T15:19:32.934Z,16.70
2018-12-19T15:22:01.416Z,17.57
2018-12-19T15:24:29.859Z,15.97
2018-12-19T15:26:58.239Z,20.03
2018-12-19T15:29:26.641Z,17.73
2018-12-19T15:31:55.081Z,16.77
2018-12-19T15:34:23.503Z,16.40
2018-12-19T15:36:51.892Z,18.53
2018-12-19T15:39:20.795Z,20.07
2018-12-19T15:41:49.229Z,20.57
2018-12-19T15:44:18.349Z,17.70
2018-12-19T15:46:46.761Z,17.03
2018-12-19T15:49:15.219Z,18.27
2018-12-19T15:51:44.635Z,20.17
2018-12-19T15:54:13.083Z,19.97
2018-12-19T15:56:41.475Z,19.63
2018-12-19T15:59:09.967Z,18.77
2018-12-19T16:01:38.371Z,19.23
2018-12-19T16:04:06.843Z,17.70
2018-12-19T16:06:35.231Z,19.53
2018-12-19T16:09:03.945Z,21.50
2018-12-19T16:11:32.407Z,18.60
2018-12-19T16:14:00.855Z,21.90
2018-12-19T16:16:29.257Z,17.13
2018-12-19T16:18:57.687Z,18.30
2018-12-19T16:21:26.185Z,18.23
2018-12-19T16:23:54.598Z,18.27
2018-12-19T16:26:23.045Z,19.40
2018-12-19T16:28:51.647Z,20.33
2018-12-19T16:31:20.056Z,18.57
2018-12-19T16:33:48.481Z,17.53
2018-12-19T16:36:16.976Z,19.03
2018-12-19T16:38:45.371Z,20.13
2018-12-19T16:41:13.856Z,16.73
2018-12-19T16:43:42.332Z,18.37
2018-12-19T16:46:10.740Z,20.20
2018-12-19T16:48:39.147Z,19.60
2018-12-19T16:51:07.684Z,22.90
2018-12-19T16:53:36.170Z,23.47
2018-12-19T16:56:04.738Z,20.23
2018-12-19T16:58:33.170Z,19.37
2018-12-19T17:01:01.566Z,17.93
2018-12-19T17:03:30.177Z,25.30
2018-12-19T17:05:58.670Z,22.23
2018-12-19T17:08:27.078Z,21.87
2018-12-19T17:10:55.492Z,19.53
2018-12-19T17:13:24.128Z,19.57
2018-12-19T17:15:52.556Z,18.57
2018-12-19T17:18:20.964Z,21.80
2018-12-19T17:20:50.127Z,20.33
2018-12-19T17:23:18.576Z,19.63
2018-12-19T17:25:47.841Z,20.07
2018-12-19T17:28:16.499Z,19.80
2018-12-19T17:30:44.905Z,23.77
2018-12-19T17:33:13.297Z,20.63
2018-12-19T17:35:41.709Z,20.80
2018-12-19T17:38:10.143Z,19.17
2018-12-19T17:40:38.534Z,22.13
2018-12-19T17:43:06.955Z,19.83
2018-12-19T17:45:35.683Z,21.27
2018-12-19T17:48:04.145Z,20.67
2018-12-19T17:50:32.613Z,19.40
2018-12-19T17:53:01.031Z,20.73
2018-12-19T17:55:29.467Z,19.43
2018-12-19T17:57:57.867Z,21.37
2018-12-19T18:00:26.365Z,19.77
2018-12-19T18:02:54.830Z,22.07
2018-12-19T18:05:23.298Z,20.30
2018-12-19T18:07:51.788Z,21.43
2018-12-19T18:10:20.188Z,22.27
2018-12-19T18:12:48.664Z,19.40
2018-12-19T18:15:17.118Z,21.10
2018-12-19T18:17:45.572Z,21.43
2018-12-19T18:20:14.090Z,21.13
2018-12-19T18:22:42.488Z,24.53
2018-12-19T18:25:10.982Z,20.17
2018-12-19T18:27:39.432Z,20.90
2018-12-19T18:30:08.448Z,20.20
2018-12-19T18:32:36.936Z,22.13
2018-12-19T18:35:06.210Z,23.20
2018-12-19T18:37:34.668Z,22.10
2018-12-19T18:40:03.285Z,22.37
2018-12-19T18:42:31.731Z,19.53
2018-12-19T18:45:00.197Z,21.20
2018-12-19T18:47:28.751Z,19.87
2018-12-19T18:49:57.189Z,20.57
2018-12-19T18:52:25.605Z,19.77
2018-12-19T18:54:54.590Z,23.05
2018-12-19T18:57:23.000Z,19.60
2018-12-19T18:59:51.469Z,20.23
2018-12-19T19:02:20.260Z,22.33
2018-12-19T19:04:48.870Z,21.53
2018-12-19T19:07:17.328Z,20.87
2018-12-19T19:09:45.930Z,22.73
2018-12-19T19:12:14.338Z,20.97
2018-12-19T19:14:42.849Z,21.10
2018-12-19T19:17:11.248Z,24.27
2018-12-19T19:19:39.690Z,21.23
2018-12-19T19:22:08.167Z,21.63
2018-12-19T19:24:36.643Z,20.70
2018-12-19T19:27:05.033Z,21.07
2018-12-19T19:29:33.516Z,21.27
2018-12-19T19:32:01.984Z,21.07
2018-12-19T19:34:30.571Z,20.40
2018-12-19T19:36:58.955Z,23.27
2018-12-19T19:39:27.469Z,19.83
2018-12-19T19:41:55.917Z,21.97
2018-12-19T19:44:24.391Z,22.83
2018-12-19T19:46:52.798Z,21.73
2018-12-19T19:49:21.241Z,21.73
2018-12-19T19:51:49.678Z,19.40
2018-12-19T19:54:18.111Z,19.80
2018-12-19T19:56:46.519Z,20.77
2018-12-19T19:59:14.975Z,22.30
2018-12-19T20:01:43.366Z,21.47
2018-12-19T20:04:11.838Z,21.90
2018-12-19T20:06:40.227Z,20.97
2018-12-19T20:09:09.007Z,21.17
2018-12-19T20:11:37.422Z,20.57
2018-12-19T20:14:05.907Z,22.93
2018-12-19T20:16:36.040Z,21.70
2018-12-19T20:19:04.450Z,21.30
2018-12-19T20:21:32.856Z,20.93
2018-12-19T20:24:01.324Z,21.17
2018-12-19T20:26:29.726Z,21.63
2018-12-19T20:28:58.148Z,23.90
2018-12-19T20:31:26.532Z,21.43
2018-12-19T20:33:54.942Z,21.87
2018-12-19T20:36:23.340Z,20.63
2018-12-19T20:38:51.782Z,21.83
2018-12-19T20:41:20.166Z,20.73
2018-12-19T20:43:48.669Z,23.93
2018-12-19T20:46:17.124Z,22.73
2018-12-19T20:48:45.608Z,21.10
2018-12-19T20:51:14.020Z,21.67
2018-12-19T20:53:42.433Z,22.00
2018-12-19T20:56:11.122Z,22.13
2018-12-19T20:58:42.510Z,20.77
2018-12-19T21:01:10.991Z,25.17
2018-12-19T21:03:39.381Z,22.93
2018-12-19T21:06:07.821Z,21.20
2018-12-19T21:08:36.227Z,25.70
2018-12-19T21:11:04.739Z,24.13
2018-12-19T21:13:33.134Z,23.13
2018-12-19T21:16:01.555Z,22.77
2018-12-19T21:18:35.404Z,25.03
2018-12-19T21:21:03.799Z,22.70
2018-12-19T21:23:32.279Z,24.70
2018-12-19T21:26:00.743Z,22.80
2018-12-19T21:28:29.127Z,23.87
2018-12-19T21:30:57.529Z,22.10
2018-12-19T21:33:25.916Z,21.53
2018-12-19T21:35:54.315Z,25.93
2018-12-19T21:38:22.815Z,26.37
2018-12-19T21:40:51.216Z,26.23
2018-12-19T21:43:20.301Z,24.67
2018-12-19T21:45:51.957Z,23.77
2018-12-19T21:48:19.686Z,25.77
2018-12-19T21:50:48.388Z,24.67
2018-12-19T21:53:17.002Z,26.63
2018-12-19T21:55:45.475Z,26.20
2018-12-19T21:58:13.920Z,24.97
2018-12-19T22:00:42.448Z,26.17
2018-12-19T22:03:11.136Z,28.50
2018-12-19T22:05:39.592Z,25.73
2018-12-19T22:08:08.327Z,24.60
2018-12-19T22:10:36.937Z,23.40
2018-12-19T22:13:05.354Z,24.23
2018-12-19T22:15:34.053Z,25.63
2018-12-19T22:18:08.321Z,26.83
2018-12-19T22:20:36.958Z,27.10
2018-12-19T22:23:05.477Z,25.07
2018-12-19T22:25:34.088Z,26.57
2018-12-19T22:28:02.593Z,26.83
2018-12-19T22:30:31.364Z,25.03
2018-12-19T22:32:59.788Z,27.57
2018-12-19T22:35:28.440Z,23.30
2018-12-19T22:37:56.911Z,28.07
2018-12-19T22:40:25.564Z,24.13
2018-12-19T22:42:54.011Z,26.00
2018-12-19T22:45:22.665Z,27.23
2018-12-19T22:47:51.306Z,26.47
2018-12-19T22:50:19.706Z,26.60
2018-12-19T22:52:48.209Z,26.40
2018-12-19T22:55:16.848Z,25.03
2018-12-19T22:57:45.621Z,26.60
2018-12-19T23:00:16.217Z,26.53
2018-12-19T23:02:50.457Z,24.67
2018-12-19T23:05:20.924Z,29.20
2018-12-19T23:07:49.981Z,25.60
2018-12-19T23:10:18.741Z,24.13
2018-12-19T23:12:47.188Z,28.20
2018-12-19T23:15:16.194Z,24.70
2018-12-19T23:17:44.607Z,27.03
2018-12-19T23:20:13.273Z,26.27
2018-12-19T23:22:41.936Z,21.83
2018-12-19T23:25:10.456Z,26.30
2018-12-19T23:27:39.189Z,24.97
2018-12-19T23:30:08.125Z,25.97
2018-12-19T23:32:36.862Z,27.77
2018-12-19T23:35:05.847Z,29.47
2018-12-19T23:37:34.674Z,24.93
2018-12-19T23:40:03.510Z,27.93
2018-12-19T23:42:31.940Z,27.93
2018-12-19T23:45:00.643Z,27.33
2018-12-19T23:47:29.060Z,26.00
2018-12-19T23:49:57.710Z,26.10
2018-12-19T23:52:26.159Z,25.27
2018-12-19T23:54:54.873Z,24.33
2018-12-19T23:57:23.424Z,25.70
2018-12-19T23:59:51.992Z,25.37
